createdAt,value
2019-06-20T00:01:49.189Z,100436.83
2019-06-20T00:04:17.709Z,100435.05
2019-06-20T00:06:46.007Z,100434.21
2019-06-20T00:09:14.303Z,100438.48
2019-06-20T00:11:42.639Z,100435.36
2019-06-20T00:14:11.016Z,100423.23
2019-06-20T00:16:39.546Z,100414.77
2019-06-20T00:19:07.885Z,100422.20
2019-06-20T00:21:36.177Z,100416.30
2019-06-20T00:24:06.117Z,100413.55
2019-06-20T00:26:34.440Z,100407.25
2019-06-20T00:29:02.791Z,100408.62
2019-06-20T00:31:31.148Z,100406.09
2019-06-20T00:33:59.430Z,100413.77
2019-06-20T00:36:27.830Z,100423.57
2019-06-20T00:38:56.249Z,100426.13
2019-06-20T00:41:24.596Z,100426.31
2019-06-20T00:43:52.982Z,100426.69
2019-06-20T00:46:21.293Z,100425.10
2019-06-20T00:48:49.582Z,100422.33
2019-06-20T00:51:17.944Z,100424.63
2019-06-20T00:53:46.250Z,100421.89
2019-06-20T00:56:14.538Z,100419.14
2019-06-20T00:58:42.863Z,100415.45
2019-06-20T01:01:11.284Z,100422.11
2019-06-20T01:03:39.617Z,100416.40
2019-06-20T01:06:07.922Z,100429.34
2019-06-20T01:08:36.239Z,100436.36
2019-06-20T01:11:04.545Z,100439.64
2019-06-20T01:13:34.262Z,100434.86
2019-06-20T01:16:02.916Z,100432.88
2019-06-20T01:18:31.239Z,100429.22
2019-06-20T01:20:59.580Z,100427.00
2019-06-20T01:23:27.879Z,100427.96
2019-06-20T01:25:56.226Z,100425.78
2019-06-20T01:28:24.579Z,100429.48
2019-06-20T01:30:52.889Z,100428.64
2019-06-20T01:33:21.184Z,100434.44
2019-06-20T01:35:49.521Z,100444.26
2019-06-20T01:38:17.816Z,100433.84
2019-06-20T01:40:46.114Z,100435.44
2019-06-20T01:43:14.607Z,100435.59
2019-06-20T01:45:42.916Z,100433.58
2019-06-20T01:48:12.408Z,100430.25
2019-06-20T01:50:40.751Z,100427.50
2019-06-20T01:53:09.100Z,100432.84
2019-06-20T01:55:37.395Z,100433.84
2019-06-20T01:58:05.778Z,100428.57
2019-06-20T02:00:49.644Z,100428.20
2019-06-20T02:03:18.199Z,100426.45
2019-06-20T02:05:46.625Z,100433.31
2019-06-20T02:08:15.057Z,100434.50
2019-06-20T02:10:43.362Z,100435.88
2019-06-20T02:13:11.696Z,100442.73
2019-06-20T02:15:40.030Z,100444.26
2019-06-20T02:18:08.324Z,100439.70
2019-06-20T02:20:38.661Z,100447.56
2019-06-20T02:23:06.980Z,100440.63
2019-06-20T02:25:35.350Z,100433.37
2019-06-20T02:28:04.029Z,100437.05
2019-06-20T02:30:32.411Z,100438.78
2019-06-20T02:33:00.830Z,100441.53
2019-06-20T02:35:29.172Z,100441.90
2019-06-20T02:37:57.468Z,100454.62
2019-06-20T02:40:25.790Z,100456.14
2019-06-20T02:42:54.245Z,100454.55
2019-06-20T02:45:22.721Z,100454.84
2019-06-20T02:47:51.059Z,100464.45
2019-06-20T02:50:19.973Z,100457.40
2019-06-20T02:52:48.337Z,100462.52
2019-06-20T02:55:16.679Z,100460.70
2019-06-20T02:57:45.031Z,100461.44
2019-06-20T03:00:13.364Z,100463.59
2019-06-20T03:02:41.688Z,100458.92
2019-06-20T03:05:11.055Z,100457.88
2019-06-20T03:07:39.567Z,100458.84
2019-06-20T03:10:07.865Z,100472.34
2019-06-20T03:12:36.309Z,100472.13
2019-06-20T03:15:05.747Z,100474.86
2019-06-20T03:17:34.106Z,100472.93
2019-06-20T03:20:02.497Z,100484.27
2019-06-20T03:22:30.786Z,100483.23
2019-06-20T03:24:59.104Z,100484.16
2019-06-20T03:27:27.460Z,100480.83
2019-06-20T03:29:55.849Z,100490.91
2019-06-20T03:32:24.239Z,100488.28
2019-06-20T03:34:52.654Z,100495.88
2019-06-20T03:37:21.000Z,100495.66
2019-06-20T03:39:49.299Z,100497.39
2019-06-20T03:42:17.614Z,100499.91
2019-06-20T03:45:01.231Z,100505.32
2019-06-20T03:47:15.974Z,100500.56
2019-06-20T03:49:44.327Z,100511.75
2019-06-20T03:52:12.733Z,100512.11
2019-06-20T03:54:41.082Z,100519.34
2019-06-20T03:57:09.457Z,100519.84
2019-06-20T03:59:38.518Z,100518.53
2019-06-20T04:02:06.849Z,100529.64
2019-06-20T04:04:35.161Z,100530.38
2019-06-20T04:07:03.512Z,100531.43
2019-06-20T04:09:31.906Z,100532.25
2019-06-20T04:12:00.209Z,100534.40
2019-06-20T04:14:28.539Z,100539.09
2019-06-20T04:16:56.907Z,100543.13
2019-06-20T04:19:25.990Z,100551.77
2019-06-20T04:21:54.280Z,100558.75
2019-06-20T04:24:22.600Z,100563.22
2019-06-20T04:26:51.039Z,100562.48
2019-06-20T04:29:19.424Z,100561.21
2019-06-20T04:31:48.117Z,100554.72
2019-06-20T04:34:16.473Z,100562.58
2019-06-20T04:36:47.979Z,100564.87
2019-06-20T04:39:19.131Z,100570.48
2019-06-20T04:41:46.015Z,100578.94
2019-06-20T04:44:14.318Z,100590.25
2019-06-20T04:46:47.072Z,100583.63
2019-06-20T04:49:15.496Z,100579.87
2019-06-20T04:51:43.829Z,100583.31
2019-06-20T04:54:12.159Z,100583.77
2019-06-20T04:56:40.591Z,100593.58
2019-06-20T04:59:08.964Z,100591.40
2019-06-20T05:01:37.260Z,100591.76
2019-06-20T05:04:05.595Z,100591.84
2019-06-20T05:06:33.911Z,100589.98
2019-06-20T05:09:02.261Z,100594.38
2019-06-20T05:11:30.668Z,100597.70
2019-06-20T05:13:58.981Z,100599.86
2019-06-20T05:16:27.311Z,100595.88
2019-06-20T05:18:55.797Z,100604.42
2019-06-20T05:21:24.120Z,100602.19
2019-06-20T05:23:52.446Z,100594.78
2019-06-20T05:26:20.965Z,100600.55
2019-06-20T05:28:49.759Z,100593.69
2019-06-20T05:31:18.105Z,100600.41
2019-06-20T05:33:46.658Z,100606.12
2019-06-20T05:36:14.954Z,100607.63
2019-06-20T05:38:43.345Z,100613.39
2019-06-20T05:41:11.762Z,100611.23
2019-06-20T05:43:40.108Z,100625.81
2019-06-20T05:46:11.069Z,100621.70
2019-06-20T05:48:38.592Z,100628.87
2019-06-20T05:51:06.978Z,100633.27
2019-06-20T05:53:35.330Z,100629.23
2019-06-20T05:56:03.641Z,100632.03
2019-06-20T05:58:31.931Z,100635.09
2019-06-20T06:01:00.262Z,100639.48
2019-06-20T06:03:28.545Z,100648.38
2019-06-20T06:05:57.003Z,100648.80
2019-06-20T06:08:25.276Z,100649.67
2019-06-20T06:10:53.565Z,100651.94
2019-06-20T06:13:21.889Z,100649.53
2019-06-20T06:15:50.303Z,100647.02
2019-06-20T06:18:18.779Z,100655.74
2019-06-20T06:20:47.122Z,100651.27
2019-06-20T06:23:15.422Z,100659.72
2019-06-20T06:25:43.897Z,100658.13
2019-06-20T06:28:12.767Z,100662.09
2019-06-20T06:30:41.222Z,100663.00
2019-06-20T06:33:09.658Z,100663.16
2019-06-20T06:35:37.959Z,100660.33
2019-06-20T06:38:06.280Z,100665.98
2019-06-20T06:40:34.703Z,100674.13
2019-06-20T06:43:03.047Z,100677.31
2019-06-20T06:45:31.487Z,100678.97
2019-06-20T06:47:59.782Z,100674.06
2019-06-20T06:50:28.736Z,100678.27
2019-06-20T06:52:57.098Z,100678.12
2019-06-20T06:55:27.654Z,100681.05
2019-06-20T06:57:55.687Z,100677.66
2019-06-20T07:00:23.995Z,100680.92
2019-06-20T07:02:52.293Z,100676.86
2019-06-20T07:05:20.719Z,100679.16
2019-06-20T07:07:49.022Z,100677.05
2019-06-20T07:10:17.311Z,100679.47
2019-06-20T07:12:45.648Z,100680.69
2019-06-20T07:15:14.160Z,100682.77
2019-06-20T07:17:42.449Z,100681.96
2019-06-20T07:20:10.766Z,100689.31
2019-06-20T07:22:39.144Z,100693.29
2019-06-20T07:25:07.468Z,100695.47
2019-06-20T07:27:35.820Z,100706.24
2019-06-20T07:30:06.709Z,100703.78
2019-06-20T07:32:35.000Z,100703.78
2019-06-20T07:35:04.627Z,100706.16
2019-06-20T07:37:33.168Z,100704.56
2019-06-20T07:40:01.490Z,100708.77
2019-06-20T07:42:30.548Z,100712.73
2019-06-20T07:44:58.873Z,100714.26
2019-06-20T07:47:27.206Z,100716.59
2019-06-20T07:49:55.605Z,100715.29
2019-06-20T07:52:23.891Z,100714.92
2019-06-20T07:54:52.325Z,100719.90
2019-06-20T07:57:20.610Z,100719.75
2019-06-20T07:59:48.998Z,100728.44
2019-06-20T08:02:17.419Z,100726.36
2019-06-20T08:04:45.824Z,100724.39
2019-06-20T08:07:14.115Z,100726.58
2019-06-20T08:09:45.153Z,100727.73
2019-06-20T08:12:12.631Z,100727.81
2019-06-20T08:14:40.958Z,100726.06
2019-06-20T08:17:09.271Z,100724.17
2019-06-20T08:19:37.555Z,100721.62
2019-06-20T08:22:05.889Z,100724.29
2019-06-20T08:24:34.181Z,100723.10
2019-06-20T08:27:03.248Z,100719.94
2019-06-20T08:29:32.625Z,100720.77
2019-06-20T08:32:02.688Z,100721.47
2019-06-20T08:34:31.053Z,100723.60
2019-06-20T08:37:00.550Z,100723.85
2019-06-20T08:39:29.575Z,100728.60
2019-06-20T08:41:59.209Z,100728.48
2019-06-20T08:44:29.013Z,100729.98
2019-06-20T08:46:59.247Z,100736.23
2019-06-20T08:49:27.606Z,100737.20
2019-06-20T08:51:57.274Z,100738.87
2019-06-20T08:54:25.971Z,100743.69
2019-06-20T08:56:57.354Z,100744.92
2019-06-20T08:59:26.136Z,100750.39
2019-06-20T09:01:56.605Z,100752.39
2019-06-20T09:04:24.587Z,100749.91
2019-06-20T09:06:55.168Z,100749.75
2019-06-20T09:09:22.929Z,100757.91
2019-06-20T09:11:51.234Z,100758.77
2019-06-20T09:14:19.593Z,100756.80
2019-06-20T09:16:47.954Z,100760.83
2019-06-20T09:19:16.288Z,100752.67
2019-06-20T09:21:44.579Z,100759.02
2019-06-20T09:24:12.871Z,100761.66
2019-06-20T09:26:41.999Z,100760.81
2019-06-20T09:29:10.341Z,100758.59
2019-06-20T09:31:38.643Z,100763.69
2019-06-20T09:34:06.944Z,100756.41
2019-06-20T09:36:35.378Z,100759.20
2019-06-20T09:39:03.872Z,100761.47
2019-06-20T09:41:32.158Z,100759.58
2019-06-20T09:44:00.645Z,100763.41
2019-06-20T09:46:29.090Z,100765.13
2019-06-20T09:48:58.722Z,100765.56
2019-06-20T09:51:27.082Z,100769.77
2019-06-20T09:53:56.362Z,100766.50
2019-06-20T09:56:24.691Z,100763.92
2019-06-20T09:58:53.182Z,100763.13
2019-06-20T10:01:21.486Z,100763.89
2019-06-20T10:03:50.532Z,100767.80
2019-06-20T10:06:18.946Z,100773.43
2019-06-20T10:08:48.316Z,100777.25
2019-06-20T10:11:16.801Z,100768.24
2019-06-20T10:13:46.866Z,100766.09
2019-06-20T10:16:16.229Z,100770.27
2019-06-20T10:18:46.750Z,100770.66
2019-06-20T10:21:14.610Z,100778.98
2019-06-20T10:23:42.907Z,100780.75
2019-06-20T10:26:11.765Z,100781.14
2019-06-20T10:28:40.091Z,100778.14
2019-06-20T10:31:08.563Z,100785.64
2019-06-20T10:33:36.850Z,100785.27
2019-06-20T10:36:05.369Z,100785.64
2019-06-20T10:38:33.679Z,100790.17
2019-06-20T10:41:01.992Z,100790.67
2019-06-20T10:43:30.386Z,100789.45
2019-06-20T10:45:58.703Z,100778.75
2019-06-20T10:48:27.132Z,100771.39
2019-06-20T10:50:57.445Z,100767.82
2019-06-20T10:53:25.747Z,100772.80
2019-06-20T10:55:54.148Z,100767.12
2019-06-20T10:58:22.433Z,100773.43
2019-06-20T11:00:51.212Z,100773.80
2019-06-20T11:03:19.868Z,100771.63
2019-06-20T11:05:48.266Z,100764.48
2019-06-20T11:08:16.966Z,100769.59
2019-06-20T11:10:47.660Z,100765.37
2019-06-20T11:13:16.028Z,100764.42
2019-06-20T11:15:44.356Z,100761.28
2019-06-20T11:18:13.004Z,100760.04
2019-06-20T11:20:42.676Z,100764.75
2019-06-20T11:23:11.324Z,100763.72
2019-06-20T11:25:40.333Z,100759.29
2019-06-20T11:28:09.715Z,100764.17
2019-06-20T11:30:52.624Z,100775.94
2019-06-20T11:33:08.113Z,100784.05
2019-06-20T11:35:37.742Z,100788.95
2019-06-20T11:38:06.320Z,100791.18
2019-06-20T11:40:35.378Z,100794.56
2019-06-20T11:43:04.638Z,100798.63
2019-06-20T11:45:35.413Z,100786.83
2019-06-20T11:48:03.040Z,100785.25
2019-06-20T11:50:31.376Z,100792.94
2019-06-20T11:52:59.778Z,100795.73
2019-06-20T11:55:28.138Z,100800.28
2019-06-20T11:57:56.451Z,100799.67
2019-06-20T12:00:24.936Z,100794.52
2019-06-20T12:02:53.285Z,100793.55
2019-06-20T12:05:21.598Z,100792.93
2019-06-20T12:07:50.236Z,100800.53
2019-06-20T12:10:20.401Z,100811.75
2019-06-20T12:12:49.143Z,100805.80
2019-06-20T12:15:17.883Z,100809.95
2019-06-20T12:17:47.220Z,100816.27
2019-06-20T12:20:15.926Z,100812.25
2019-06-20T12:22:45.060Z,100824.73
2019-06-20T12:25:15.348Z,100812.33
2019-06-20T12:27:45.471Z,100820.95
2019-06-20T12:30:17.528Z,100822.53
2019-06-20T12:32:46.846Z,100826.53
2019-06-20T12:35:15.823Z,100812.66
2019-06-20T12:37:45.203Z,100811.14
2019-06-20T12:40:13.787Z,100812.41
2019-06-20T12:42:43.239Z,100815.66
2019-06-20T12:45:12.258Z,100809.52
2019-06-20T12:47:41.818Z,100812.57
2019-06-20T12:50:10.463Z,100807.27
2019-06-20T12:52:39.527Z,100809.97
2019-06-20T12:55:09.260Z,100809.67
2019-06-20T12:57:39.158Z,100821.12
2019-06-20T13:00:08.723Z,100820.23
2019-06-20T13:02:38.613Z,100812.26
2019-06-20T13:05:08.192Z,100817.56
2019-06-20T13:07:38.610Z,100816.92
2019-06-20T13:10:09.603Z,100818.12
2019-06-20T13:12:37.922Z,100816.87
2019-06-20T13:15:06.272Z,100825.27
2019-06-20T13:17:34.589Z,100820.71
2019-06-20T13:20:03.325Z,100825.38
2019-06-20T13:22:31.630Z,100821.96
2019-06-20T13:25:00.004Z,100824.92
2019-06-20T13:27:28.412Z,100821.27
2019-06-20T13:29:56.876Z,100833.37
2019-06-20T13:32:25.453Z,100828.28
2019-06-20T13:34:53.816Z,100828.61
2019-06-20T13:37:22.124Z,100825.41
2019-06-20T13:39:50.778Z,100834.20
2019-06-20T13:42:19.159Z,100829.36
2019-06-20T13:44:47.639Z,100828.86
2019-06-20T13:47:16.059Z,100831.03
2019-06-20T13:49:45.563Z,100834.79
2019-06-20T13:52:14.155Z,100825.41
2019-06-20T13:54:44.638Z,100824.66
2019-06-20T13:57:13.361Z,100827.25
2019-06-20T13:59:41.807Z,100812.27
2019-06-20T14:02:10.363Z,100815.15
2019-06-20T14:04:41.040Z,100818.88
2019-06-20T14:07:08.706Z,100807.45
2019-06-20T14:09:36.989Z,100807.70
2019-06-20T14:12:05.381Z,100808.57
2019-06-20T14:14:33.824Z,100806.30
2019-06-20T14:17:02.303Z,100807.41
2019-06-20T14:19:30.711Z,100803.97
2019-06-20T14:21:59.061Z,100815.83
2019-06-20T14:24:27.551Z,100818.12
2019-06-20T14:26:58.395Z,100827.64
2019-06-20T14:29:26.721Z,100825.44
2019-06-20T14:31:55.105Z,100818.68
2019-06-20T14:34:23.465Z,100824.45
2019-06-20T14:36:52.287Z,100819.23
2019-06-20T14:39:21.808Z,100825.50
2019-06-20T14:41:51.879Z,100819.10
2019-06-20T14:44:20.209Z,100830.00
2019-06-20T14:46:48.516Z,100821.10
2019-06-20T14:49:16.852Z,100823.59
2019-06-20T14:51:46.734Z,100821.98
2019-06-20T14:54:15.311Z,100826.83
2019-06-20T14:56:44.646Z,100832.97
2019-06-20T14:59:13.732Z,100835.70
2019-06-20T15:01:42.032Z,100840.09
2019-06-20T15:04:10.314Z,100839.90
2019-06-20T15:06:38.732Z,100832.75
2019-06-20T15:09:08.073Z,100848.40
2019-06-20T15:11:36.529Z,100857.95
2019-06-20T15:14:04.925Z,100861.24
2019-06-20T15:16:33.229Z,100858.14
2019-06-20T15:19:01.515Z,100855.52
2019-06-20T15:21:29.832Z,100859.02
2019-06-20T15:23:58.230Z,100866.16
2019-06-20T15:26:26.678Z,100872.38
2019-06-20T15:28:55.575Z,100876.17
2019-06-20T15:31:24.968Z,100881.73
2019-06-20T15:33:53.782Z,100881.98
2019-06-20T15:36:23.447Z,100870.91
2019-06-20T15:38:53.005Z,100879.03
2019-06-20T15:41:21.406Z,100881.20
2019-06-20T15:43:49.899Z,100878.05
2019-06-20T15:46:18.317Z,100879.27
2019-06-20T15:48:46.784Z,100881.82
2019-06-20T15:51:15.096Z,100882.20
2019-06-20T15:53:43.396Z,100879.44
2019-06-20T15:56:11.892Z,100886.17
2019-06-20T15:58:41.829Z,100892.88
2019-06-20T16:01:10.119Z,100894.27
2019-06-20T16:03:38.418Z,100894.87
2019-06-20T16:06:06.816Z,100894.28
2019-06-20T16:08:35.352Z,100889.88
2019-06-20T16:11:03.704Z,100895.28
2019-06-20T16:13:32.080Z,100894.46
2019-06-20T16:16:03.193Z,100895.65
2019-06-20T16:18:31.663Z,100897.22
2019-06-20T16:20:59.952Z,100897.59
2019-06-20T16:23:28.227Z,100900.39
2019-06-20T16:25:56.714Z,100901.21
2019-06-20T16:28:25.052Z,100909.30
2019-06-20T16:31:07.921Z,100902.98
2019-06-20T16:33:25.481Z,100900.63
2019-06-20T16:35:53.697Z,100907.76
2019-06-20T16:38:22.183Z,100912.66
2019-06-20T16:40:50.539Z,100903.33
2019-06-20T16:43:18.853Z,100909.68
2019-06-20T16:45:47.160Z,100914.82
2019-06-20T16:48:15.501Z,100907.47
2019-06-20T16:50:43.923Z,100910.61
2019-06-20T16:53:12.299Z,100913.46
2019-06-20T16:55:43.735Z,100914.36
2019-06-20T16:58:12.176Z,100917.98
2019-06-20T17:00:40.711Z,100918.10
2019-06-20T17:03:09.069Z,100921.77
2019-06-20T17:05:39.150Z,100924.53
2019-06-20T17:08:07.495Z,100930.88
2019-06-20T17:10:35.785Z,100930.74
2019-06-20T17:13:04.380Z,100939.39
2019-06-20T17:15:32.925Z,100941.19
2019-06-20T17:18:04.079Z,100943.89
2019-06-20T17:20:32.622Z,100949.47
2019-06-20T17:23:01.069Z,100943.62
2019-06-20T17:25:29.418Z,100947.36
2019-06-20T17:27:57.868Z,100945.39
2019-06-20T17:30:27.881Z,100943.72
2019-06-20T17:32:56.274Z,100949.93
2019-06-20T17:35:24.582Z,100957.28
2019-06-20T17:37:52.946Z,100959.42
2019-06-20T17:40:21.268Z,100970.88
2019-06-20T17:42:49.646Z,100968.37
2019-06-20T17:45:18.082Z,100974.70
2019-06-20T17:47:46.454Z,100976.48
2019-06-20T17:50:14.848Z,100982.76
2019-06-20T17:52:43.126Z,100987.44
2019-06-20T17:55:11.606Z,100986.89
2019-06-20T17:57:39.943Z,100993.63
2019-06-20T18:00:10.731Z,100993.09
2019-06-20T18:02:39.741Z,100996.33
2019-06-20T18:05:08.422Z,101000.77
2019-06-20T18:07:36.760Z,101011.11
2019-06-20T18:10:08.382Z,101006.47
2019-06-20T18:12:36.656Z,101005.69
2019-06-20T18:15:07.068Z,101006.84
2019-06-20T18:17:35.368Z,101015.80
2019-06-20T18:20:06.026Z,101019.55
2019-06-20T18:22:34.445Z,101031.72
2019-06-20T18:25:02.734Z,101037.85
2019-06-20T18:27:31.285Z,101036.85
2019-06-20T18:29:59.814Z,101041.52
2019-06-20T18:32:29.711Z,101046.59
2019-06-20T18:35:02.495Z,101040.76
2019-06-20T18:37:32.074Z,101040.66
2019-06-20T18:40:00.477Z,101052.17
2019-06-20T18:42:28.924Z,101060.80
2019-06-20T18:44:57.340Z,101059.08
2019-06-20T18:47:25.617Z,101063.28
2019-06-20T18:49:54.069Z,101058.73
2019-06-20T18:52:22.439Z,101056.28
2019-06-20T18:54:51.461Z,101068.91
2019-06-20T18:57:19.802Z,101065.76
2019-06-20T18:59:48.079Z,101068.92
2019-06-20T19:02:16.504Z,101067.84
2019-06-20T19:04:50.716Z,101066.44
2019-06-20T19:07:17.335Z,101062.71
2019-06-20T19:09:45.722Z,101065.23
2019-06-20T19:12:14.235Z,101063.16
2019-06-20T19:14:42.567Z,101054.37
2019-06-20T19:17:14.546Z,101065.48
2019-06-20T19:19:41.083Z,101072.88
2019-06-20T19:22:09.475Z,101076.34
2019-06-20T19:24:37.759Z,101082.83
2019-06-20T19:27:09.097Z,101091.65
2019-06-20T19:29:37.688Z,101094.73
2019-06-20T19:32:07.774Z,101097.04
2019-06-20T19:34:36.634Z,101102.13
2019-06-20T19:37:05.111Z,101108.73
2019-06-20T19:39:33.415Z,101111.84
2019-06-20T19:42:01.736Z,101117.00
2019-06-20T19:44:30.187Z,101122.14
2019-06-20T19:46:58.617Z,101125.41
2019-06-20T19:49:27.141Z,101126.84
2019-06-20T19:51:56.003Z,101129.87
2019-06-20T19:54:24.356Z,101124.09
2019-06-20T19:56:52.778Z,101134.64
2019-06-20T19:59:21.165Z,101133.71
2019-06-20T20:01:49.712Z,101134.72
2019-06-20T20:04:18.024Z,101132.39
2019-06-20T20:06:46.345Z,101130.31
2019-06-20T20:09:14.642Z,101124.31
2019-06-20T20:11:42.958Z,101136.78
2019-06-20T20:14:11.230Z,101131.91
2019-06-20T20:16:40.226Z,101127.78
2019-06-20T20:19:08.566Z,101127.56
2019-06-20T20:21:36.878Z,101132.98
2019-06-20T20:24:05.173Z,101147.05
2019-06-20T20:26:33.620Z,101146.52
2019-06-20T20:29:02.023Z,101143.00
2019-06-20T20:31:30.504Z,101149.82
2019-06-20T20:33:59.629Z,101148.27
2019-06-20T20:36:27.909Z,101151.42
2019-06-20T20:38:56.296Z,101150.17
2019-06-20T20:41:24.597Z,101158.04
2019-06-20T20:43:52.903Z,101147.90
2019-06-20T20:46:21.275Z,101152.58
2019-06-20T20:48:49.699Z,101156.84
2019-06-20T20:51:17.981Z,101171.08
2019-06-20T20:53:46.316Z,101180.27
2019-06-20T20:56:14.819Z,101177.85
2019-06-20T20:58:43.085Z,101176.28
2019-06-20T21:01:31.133Z,101176.55
2019-06-20T21:04:00.422Z,101181.58
2019-06-20T21:06:29.348Z,101186.78
2019-06-20T21:08:57.722Z,101190.22
2019-06-20T21:11:26.072Z,101191.81
2019-06-20T21:13:54.970Z,101189.79
2019-06-20T21:16:23.269Z,101187.95
2019-06-20T21:18:51.799Z,101174.94
2019-06-20T21:21:20.090Z,101174.28
2019-06-20T21:23:48.448Z,101174.77
2019-06-20T21:26:16.774Z,101176.79
2019-06-20T21:28:45.062Z,101173.97
2019-06-20T21:31:13.649Z,101172.72
2019-06-20T21:33:41.985Z,101167.72
2019-06-20T21:36:10.387Z,101167.61
2019-06-20T21:38:38.791Z,101174.15
2019-06-20T21:41:07.119Z,101174.08
2019-06-20T21:43:35.459Z,101178.55
2019-06-20T21:46:06.644Z,101182.44
2019-06-20T21:48:33.817Z,101192.73
2019-06-20T21:51:02.204Z,101201.02
2019-06-20T21:53:30.483Z,101198.63
2019-06-20T21:55:59.418Z,101206.86
2019-06-20T21:58:28.031Z,101205.61
2019-06-20T22:00:57.158Z,101211.23
2019-06-20T22:03:25.470Z,101219.36
2019-06-20T22:05:53.818Z,101215.71
2019-06-20T22:08:22.160Z,101220.73
2019-06-20T22:10:50.574Z,101222.82
2019-06-20T22:13:19.166Z,101225.12
2019-06-20T22:15:48.007Z,101218.39
2019-06-20T22:18:16.292Z,101217.69
2019-06-20T22:20:44.625Z,101217.25
2019-06-20T22:23:12.940Z,101216.00
2019-06-20T22:25:41.323Z,101218.87
2019-06-20T22:28:09.708Z,101214.08
2019-06-20T22:30:54.881Z,101208.72
2019-06-20T22:33:23.253Z,101209.74
2019-06-20T22:35:51.757Z,101223.14
2019-06-20T22:38:20.156Z,101217.08
2019-06-20T22:40:48.515Z,101220.60
2019-06-20T22:43:16.826Z,101223.58
2019-06-20T22:45:45.229Z,101230.67
2019-06-20T22:48:13.651Z,101235.25
2019-06-20T22:50:42.017Z,101224.86
2019-06-20T22:53:10.392Z,101223.59
2019-06-20T22:55:38.827Z,101224.53
2019-06-20T22:58:07.251Z,101225.43
2019-06-20T23:00:35.732Z,101218.02
2019-06-20T23:03:05.071Z,101221.67
2019-06-20T23:05:33.434Z,101218.12
2019-06-20T23:08:01.953Z,101218.48
2019-06-20T23:10:30.439Z,101218.36
2019-06-20T23:12:58.921Z,101221.80
2019-06-20T23:15:27.222Z,101224.41
2019-06-20T23:17:55.625Z,101232.98
2019-06-20T23:20:24.135Z,101227.72
2019-06-20T23:22:53.158Z,101235.73
2019-06-20T23:25:21.451Z,101233.55
2019-06-20T23:27:49.879Z,101234.11
2019-06-20T23:30:18.323Z,101232.61
2019-06-20T23:32:46.606Z,101228.17
2019-06-20T23:35:14.927Z,101229.41
2019-06-20T23:37:43.240Z,101218.88
2019-06-20T23:40:11.639Z,101224.22
2019-06-20T23:42:39.950Z,101221.94
2019-06-20T23:45:09.022Z,101226.50
2019-06-20T23:47:37.699Z,101225.81
2019-06-20T23:50:06.788Z,101224.86
2019-06-20T23:52:45.467Z,101229.42
2019-06-20T23:55:13.791Z,101231.13
2019-06-20T23:57:43.745Z,101235.10
